sensor_id;sensor_type;location;lat;lon;timestamp;P1;durP1;ratioP1;P2;durP2;ratioP2
12383;SDS011;6256;63.808;20.336;2023-04-30T00:00:55;1.17;;;0.90;;
12383;SDS011;6256;63.808;20.336;2023-04-30T00:03:21;1.53;;;1.43;;
12383;SDS011;6256;63.808;20.336;2023-04-30T00:05:51;1.80;;;1.17;;
12383;SDS011;6256;63.808;20.336;2023-04-30T00:08:16;1.67;;;1.23;;
12383;SDS011;6256;63.808;20.336;2023-04-30T00:10:42;1.30;;;0.90;;
12383;SDS011;6256;63.808;20.336;2023-04-30T00:13:08;2.13;;;1.00;;
12383;SDS011;6256;63.808;20.336;2023-04-30T00:15:34;1.87;;;1.33;;
12383;SDS011;6256;63.808;20.336;2023-04-30T00:18:00;1.40;;;1.30;;
12383;SDS011;6256;63.808;20.336;2023-04-30T00:20:26;3.40;;;1.53;;
12383;SDS011;6256;63.808;20.336;2023-04-30T00:22:52;5.20;;;1.80;;
12383;SDS011;6256;63.808;20.336;2023-04-30T00:25:18;1.60;;;1.27;;
12383;SDS011;6256;63.808;20.336;2023-04-30T00:27:45;6.80;;;1.37;;
12383;SDS011;6256;63.808;20.336;2023-04-30T00:30:10;1.47;;;1.23;;
12383;SDS011;6256;63.808;20.336;2023-04-30T00:32:36;1.80;;;1.27;;
12383;SDS011;6256;63.808;20.336;2023-04-30T00:35:02;3.43;;;1.93;;
12383;SDS011;6256;63.808;20.336;2023-04-30T00:37:28;1.53;;;1.40;;
12383;SDS011;6256;63.808;20.336;2023-04-30T00:39:54;2.93;;;1.10;;
12383;SDS011;6256;63.808;20.336;2023-04-30T00:42:20;1.50;;;1.23;;
12383;SDS011;6256;63.808;20.336;2023-04-30T00:44:46;1.67;;;1.27;;
12383;SDS011;6256;63.808;20.336;2023-04-30T00:47:11;1.27;;;1.17;;
12383;SDS011;6256;63.808;20.336;2023-04-30T00:49:37;2.17;;;1.23;;
12383;SDS011;6256;63.808;20.336;2023-04-30T00:52:03;1.63;;;1.23;;
12383;SDS011;6256;63.808;20.336;2023-04-30T00:54:29;1.60;;;1.20;;
12383;SDS011;6256;63.808;20.336;2023-04-30T00:56:54;1.73;;;1.30;;
12383;SDS011;6256;63.808;20.336;2023-04-30T00:59:20;1.03;;;0.93;;
12383;SDS011;6256;63.808;20.336;2023-04-30T01:01:46;1.63;;;1.30;;
12383;SDS011;6256;63.808;20.336;2023-04-30T01:04:11;2.23;;;1.43;;
12383;SDS011;6256;63.808;20.336;2023-04-30T01:06:37;8.97;;;2.30;;
12383;SDS011;6256;63.808;20.336;2023-04-30T01:09:03;3.30;;;1.77;;
12383;SDS011;6256;63.808;20.336;2023-04-30T01:14:09;3.30;;;1.83;;
12383;SDS011;6256;63.808;20.336;2023-04-30T01:16:47;2.07;;;1.50;;
12383;SDS011;6256;63.808;20.336;2023-04-30T01:21:58;1.20;;;1.10;;
12383;SDS011;6256;63.808;20.336;2023-04-30T01:27:23;8.40;;;2.07;;
12383;SDS011;6256;63.808;20.336;2023-04-30T01:29:56;2.80;;;1.20;;
12383;SDS011;6256;63.808;20.336;2023-04-30T01:32:23;2.03;;;1.40;;
12383;SDS011;6256;63.808;20.336;2023-04-30T01:34:49;2.67;;;1.17;;
12383;SDS011;6256;63.808;20.336;2023-04-30T01:37:21;1.10;;;0.90;;
12383;SDS011;6256;63.808;20.336;2023-04-30T01:40:12;7.10;;;1.50;;
12383;SDS011;6256;63.808;20.336;2023-04-30T01:50:34;1.50;;;1.40;;
12383;SDS011;6256;63.808;20.336;2023-04-30T01:53:17;1.33;;;1.23;;
12383;SDS011;6256;63.808;20.336;2023-04-30T01:55:49;3.73;;;1.40;;
12383;SDS011;6256;63.808;20.336;2023-04-30T01:58:23;2.87;;;1.50;;
12383;SDS011;6256;63.808;20.336;2023-04-30T02:00:50;1.70;;;1.37;;
12383;SDS011;6256;63.808;20.336;2023-04-30T02:03:16;3.77;;;1.90;;
12383;SDS011;6256;63.808;20.336;2023-04-30T02:05:42;5.10;;;1.47;;
12383;SDS011;6256;63.808;20.336;2023-04-30T02:08:08;3.30;;;1.60;;
12383;SDS011;6256;63.808;20.336;2023-04-30T02:10:33;3.10;;;1.70;;
12383;SDS011;6256;63.808;20.336;2023-04-30T02:12:59;2.37;;;1.53;;
12383;SDS011;6256;63.808;20.336;2023-04-30T02:15:25;5.40;;;2.30;;
12383;SDS011;6256;63.808;20.336;2023-04-30T02:17:51;3.83;;;2.23;;
12383;SDS011;6256;63.808;20.336;2023-04-30T02:20:17;2.33;;;2.00;;
12383;SDS011;6256;63.808;20.336;2023-04-30T02:22:42;3.63;;;1.70;;
12383;SDS011;6256;63.808;20.336;2023-04-30T02:25:08;2.70;;;1.77;;
12383;SDS011;6256;63.808;20.336;2023-04-30T02:27:36;3.17;;;1.73;;
12383;SDS011;6256;63.808;20.336;2023-04-30T02:30:02;3.33;;;2.10;;
12383;SDS011;6256;63.808;20.336;2023-04-30T02:32:28;3.23;;;2.10;;
12383;SDS011;6256;63.808;20.336;2023-04-30T02:34:54;2.73;;;1.93;;
12383;SDS011;6256;63.808;20.336;2023-04-30T02:37:20;2.40;;;1.47;;
12383;SDS011;6256;63.808;20.336;2023-04-30T02:39:46;7.70;;;2.53;;
12383;SDS011;6256;63.808;20.336;2023-04-30T02:42:12;6.60;;;1.90;;
12383;SDS011;6256;63.808;20.336;2023-04-30T02:44:38;2.90;;;1.83;;
12383;SDS011;6256;63.808;20.336;2023-04-30T02:47:04;2.20;;;1.73;;
12383;SDS011;6256;63.808;20.336;2023-04-30T02:49:29;1.80;;;1.60;;
12383;SDS011;6256;63.808;20.336;2023-04-30T02:51:55;2.03;;;1.47;;
12383;SDS011;6256;63.808;20.336;2023-04-30T02:54:21;4.33;;;2.50;;
12383;SDS011;6256;63.808;20.336;2023-04-30T02:56:47;5.33;;;1.87;;
12383;SDS011;6256;63.808;20.336;2023-04-30T02:59:12;3.30;;;2.13;;
12383;SDS011;6256;63.808;20.336;2023-04-30T03:01:38;3.07;;;1.87;;
12383;SDS011;6256;63.808;20.336;2023-04-30T03:04:04;4.57;;;1.87;;
12383;SDS011;6256;63.808;20.336;2023-04-30T03:06:30;5.63;;;2.50;;
12383;SDS011;6256;63.808;20.336;2023-04-30T03:08:57;2.70;;;2.20;;
12383;SDS011;6256;63.808;20.336;2023-04-30T03:11:23;3.53;;;2.17;;
12383;SDS011;6256;63.808;20.336;2023-04-30T03:13:48;2.30;;;1.87;;
12383;SDS011;6256;63.808;20.336;2023-04-30T03:16:18;2.53;;;1.60;;
12383;SDS011;6256;63.808;20.336;2023-04-30T03:18:47;2.67;;;1.73;;
12383;SDS011;6256;63.808;20.336;2023-04-30T03:21:13;6.17;;;1.60;;
12383;SDS011;6256;63.808;20.336;2023-04-30T03:23:39;3.57;;;1.90;;
12383;SDS011;6256;63.808;20.336;2023-04-30T03:26:05;2.93;;;1.90;;
12383;SDS011;6256;63.808;20.336;2023-04-30T03:28:31;4.80;;;1.60;;
12383;SDS011;6256;63.808;20.336;2023-04-30T03:30:57;5.13;;;1.80;;
12383;SDS011;6256;63.808;20.336;2023-04-30T03:33:24;2.03;;;1.93;;
12383;SDS011;6256;63.808;20.336;2023-04-30T03:35:50;2.63;;;2.10;;
12383;SDS011;6256;63.808;20.336;2023-04-30T03:38:16;2.60;;;2.03;;
12383;SDS011;6256;63.808;20.336;2023-04-30T03:40:41;4.03;;;1.47;;
12383;SDS011;6256;63.808;20.336;2023-04-30T03:43:07;1.93;;;1.83;;
12383;SDS011;6256;63.808;20.336;2023-04-30T03:45:33;1.63;;;1.40;;
12383;SDS011;6256;63.808;20.336;2023-04-30T03:47:59;1.87;;;1.73;;
12383;SDS011;6256;63.808;20.336;2023-04-30T03:50:24;2.07;;;1.57;;
12383;SDS011;6256;63.808;20.336;2023-04-30T03:52:50;2.97;;;1.57;;
12383;SDS011;6256;63.808;20.336;2023-04-30T03:55:16;3.73;;;1.40;;
12383;SDS011;6256;63.808;20.336;2023-04-30T03:57:42;1.93;;;1.27;;
12383;SDS011;6256;63.808;20.336;2023-04-30T04:00:08;1.20;;;0.97;;
12383;SDS011;6256;63.808;20.336;2023-04-30T04:02:35;1.00;;;0.97;;
12383;SDS011;6256;63.808;20.336;2023-04-30T04:05:01;3.67;;;1.23;;
12383;SDS011;6256;63.808;20.336;2023-04-30T04:07:27;0.80;;;0.80;;
12383;SDS011;6256;63.808;20.336;2023-04-30T04:09:53;2.00;;;1.00;;
12383;SDS011;6256;63.808;20.336;2023-04-30T04:12:19;1.03;;;0.80;;
12383;SDS011;6256;63.808;20.336;2023-04-30T04:14:45;0.63;;;0.63;;
12383;SDS011;6256;63.808;20.336;2023-04-30T04:17:11;1.27;;;1.10;;
12383;SDS011;6256;63.808;20.336;2023-04-30T04:19:38;1.47;;;1.13;;
12383;SDS011;6256;63.808;20.336;2023-04-30T04:22:03;1.17;;;1.07;;
12383;SDS011;6256;63.808;20.336;2023-04-30T04:24:29;1.40;;;1.10;;
12383;SDS011;6256;63.808;20.336;2023-04-30T04:26:55;1.57;;;1.43;;
12383;SDS011;6256;63.808;20.336;2023-04-30T04:29:22;4.57;;;1.03;;
12383;SDS011;6256;63.808;20.336;2023-04-30T04:31:48;0.87;;;0.87;;
12383;SDS011;6256;63.808;20.336;2023-04-30T04:34:15;0.80;;;0.80;;
12383;SDS011;6256;63.808;20.336;2023-04-30T04:36:41;0.70;;;0.70;;
12383;SDS011;6256;63.808;20.336;2023-04-30T04:39:07;1.10;;;1.00;;
12383;SDS011;6256;63.808;20.336;2023-04-30T04:41:32;1.37;;;1.20;;
12383;SDS011;6256;63.808;20.336;2023-04-30T04:43:59;1.17;;;0.87;;
12383;SDS011;6256;63.808;20.336;2023-04-30T04:46:29;1.53;;;0.80;;
12383;SDS011;6256;63.808;20.336;2023-04-30T04:48:56;0.70;;;0.70;;
12383;SDS011;6256;63.808;20.336;2023-04-30T04:51:22;1.07;;;1.00;;
12383;SDS011;6256;63.808;20.336;2023-04-30T04:53:51;0.93;;;0.90;;
12383;SDS011;6256;63.808;20.336;2023-04-30T04:56:16;1.97;;;1.03;;
12383;SDS011;6256;63.808;20.336;2023-04-30T04:58:42;0.83;;;0.70;;
12383;SDS011;6256;63.808;20.336;2023-04-30T05:01:09;2.90;;;0.90;;
12383;SDS011;6256;63.808;20.336;2023-04-30T05:03:35;1.07;;;0.90;;
12383;SDS011;6256;63.808;20.336;2023-04-30T05:06:01;0.80;;;0.80;;
12383;SDS011;6256;63.808;20.336;2023-04-30T05:08:27;0.80;;;0.80;;
12383;SDS011;6256;63.808;20.336;2023-04-30T05:10:53;1.07;;;0.83;;
12383;SDS011;6256;63.808;20.336;2023-04-30T05:13:22;3.67;;;0.80;;
12383;SDS011;6256;63.808;20.336;2023-04-30T05:15:49;0.77;;;0.77;;
12383;SDS011;6256;63.808;20.336;2023-04-30T05:18:16;0.80;;;0.80;;
12383;SDS011;6256;63.808;20.336;2023-04-30T05:20:41;0.70;;;0.70;;
12383;SDS011;6256;63.808;20.336;2023-04-30T05:23:07;0.93;;;0.87;;
12383;SDS011;6256;63.808;20.336;2023-04-30T05:25:34;2.50;;;0.80;;
12383;SDS011;6256;63.808;20.336;2023-04-30T05:28:00;0.83;;;0.70;;
12383;SDS011;6256;63.808;20.336;2023-04-30T05:30:26;1.23;;;0.90;;
12383;SDS011;6256;63.808;20.336;2023-04-30T05:32:52;0.93;;;0.70;;
12383;SDS011;6256;63.808;20.336;2023-04-30T05:35:17;0.70;;;0.70;;
12383;SDS011;6256;63.808;20.336;2023-04-30T05:37:43;1.50;;;1.00;;
12383;SDS011;6256;63.808;20.336;2023-04-30T05:40:09;0.63;;;0.63;;
12383;SDS011;6256;63.808;20.336;2023-04-30T05:42:36;0.70;;;0.70;;
12383;SDS011;6256;63.808;20.336;2023-04-30T05:45:04;0.80;;;0.80;;
12383;SDS011;6256;63.808;20.336;2023-04-30T05:47:31;0.70;;;0.70;;
12383;SDS011;6256;63.808;20.336;2023-04-30T05:50:00;0.63;;;0.63;;
12383;SDS011;6256;63.808;20.336;2023-04-30T05:52:26;0.73;;;0.73;;
12383;SDS011;6256;63.808;20.336;2023-04-30T05:54:52;1.03;;;0.73;;
12383;SDS011;6256;63.808;20.336;2023-04-30T05:57:18;0.70;;;0.70;;
12383;SDS011;6256;63.808;20.336;2023-04-30T05:59:43;1.83;;;0.60;;
12383;SDS011;6256;63.808;20.336;2023-04-30T06:02:09;0.80;;;0.80;;
12383;SDS011;6256;63.808;20.336;2023-04-30T06:04:35;0.60;;;0.60;;
12383;SDS011;6256;63.808;20.336;2023-04-30T06:07:01;0.50;;;0.50;;
12383;SDS011;6256;63.808;20.336;2023-04-30T06:09:26;0.70;;;0.70;;
12383;SDS011;6256;63.808;20.336;2023-04-30T06:11:52;0.63;;;0.63;;
12383;SDS011;6256;63.808;20.336;2023-04-30T06:14:19;0.70;;;0.70;;
12383;SDS011;6256;63.808;20.336;2023-04-30T06:16:46;0.67;;;0.67;;
12383;SDS011;6256;63.808;20.336;2023-04-30T06:19:12;0.53;;;0.53;;
12383;SDS011;6256;63.808;20.336;2023-04-30T06:21:38;0.60;;;0.60;;
12383;SDS011;6256;63.808;20.336;2023-04-30T06:24:04;0.60;;;0.60;;
12383;SDS011;6256;63.808;20.336;2023-04-30T06:26:30;0.70;;;0.70;;
12383;SDS011;6256;63.808;20.336;2023-04-30T06:28:56;0.43;;;0.43;;
12383;SDS011;6256;63.808;20.336;2023-04-30T06:31:22;0.50;;;0.50;;
12383;SDS011;6256;63.808;20.336;2023-04-30T06:33:48;1.00;;;0.50;;
12383;SDS011;6256;63.808;20.336;2023-04-30T06:36:14;0.50;;;0.50;;
12383;SDS011;6256;63.808;20.336;2023-04-30T06:38:40;0.53;;;0.53;;
12383;SDS011;6256;63.808;20.336;2023-04-30T06:41:06;2.07;;;0.77;;
12383;SDS011;6256;63.808;20.336;2023-04-30T06:43:32;0.60;;;0.60;;
12383;SDS011;6256;63.808;20.336;2023-04-30T06:45:58;0.40;;;0.40;;
12383;SDS011;6256;63.808;20.336;2023-04-30T06:48:24;2.30;;;0.60;;
12383;SDS011;6256;63.808;20.336;2023-04-30T06:50:50;0.50;;;0.50;;
12383;SDS011;6256;63.808;20.336;2023-04-30T06:53:15;0.70;;;0.70;;
12383;SDS011;6256;63.808;20.336;2023-04-30T06:55:41;2.73;;;0.90;;
12383;SDS011;6256;63.808;20.336;2023-04-30T06:58:08;2.03;;;0.70;;
12383;SDS011;6256;63.808;20.336;2023-04-30T07:00:34;0.50;;;0.50;;
12383;SDS011;6256;63.808;20.336;2023-04-30T07:03:00;0.40;;;0.40;;
12383;SDS011;6256;63.808;20.336;2023-04-30T07:05:30;0.97;;;0.60;;
12383;SDS011;6256;63.808;20.336;2023-04-30T07:07:57;0.70;;;0.70;;
12383;SDS011;6256;63.808;20.336;2023-04-30T07:10:26;0.40;;;0.40;;
12383;SDS011;6256;63.808;20.336;2023-04-30T07:12:51;0.43;;;0.43;;
12383;SDS011;6256;63.808;20.336;2023-04-30T07:15:17;0.60;;;0.60;;
12383;SDS011;6256;63.808;20.336;2023-04-30T07:17:43;0.70;;;0.70;;
12383;SDS011;6256;63.808;20.336;2023-04-30T07:20:09;0.60;;;0.60;;
12383;SDS011;6256;63.808;20.336;2023-04-30T07:22:37;0.70;;;0.70;;
12383;SDS011;6256;63.808;20.336;2023-04-30T07:25:02;0.70;;;0.70;;
12383;SDS011;6256;63.808;20.336;2023-04-30T07:27:29;0.50;;;0.50;;
12383;SDS011;6256;63.808;20.336;2023-04-30T07:29:54;1.00;;;0.57;;
12383;SDS011;6256;63.808;20.336;2023-04-30T07:32:20;0.50;;;0.50;;
12383;SDS011;6256;63.808;20.336;2023-04-30T07:34:46;0.60;;;0.60;;
12383;SDS011;6256;63.808;20.336;2023-04-30T07:37:12;0.60;;;0.53;;
12383;SDS011;6256;63.808;20.336;2023-04-30T07:39:38;0.40;;;0.40;;
12383;SDS011;6256;63.808;20.336;2023-04-30T07:42:04;0.60;;;0.60;;
12383;SDS011;6256;63.808;20.336;2023-04-30T07:44:30;0.50;;;0.50;;
12383;SDS011;6256;63.808;20.336;2023-04-30T07:46:56;0.50;;;0.50;;
12383;SDS011;6256;63.808;20.336;2023-04-30T07:49:22;0.77;;;0.60;;
12383;SDS011;6256;63.808;20.336;2023-04-30T07:51:48;2.13;;;0.70;;
12383;SDS011;6256;63.808;20.336;2023-04-30T07:54:13;0.50;;;0.50;;
12383;SDS011;6256;63.808;20.336;2023-04-30T07:56:39;0.70;;;0.50;;
12383;SDS011;6256;63.808;20.336;2023-04-30T07:59:05;0.50;;;0.50;;
12383;SDS011;6256;63.808;20.336;2023-04-30T08:01:31;0.83;;;0.70;;
12383;SDS011;6256;63.808;20.336;2023-04-30T08:04:00;0.60;;;0.60;;
12383;SDS011;6256;63.808;20.336;2023-04-30T08:06:25;0.87;;;0.73;;
12383;SDS011;6256;63.808;20.336;2023-04-30T08:08:51;0.60;;;0.60;;
12383;SDS011;6256;63.808;20.336;2023-04-30T08:11:17;0.30;;;0.30;;
12383;SDS011;6256;63.808;20.336;2023-04-30T08:13:43;0.70;;;0.70;;
12383;SDS011;6256;63.808;20.336;2023-04-30T08:16:09;2.97;;;0.90;;
12383;SDS011;6256;63.808;20.336;2023-04-30T08:18:35;1.20;;;0.60;;
12383;SDS011;6256;63.808;20.336;2023-04-30T08:21:05;1.07;;;0.80;;
12383;SDS011;6256;63.808;20.336;2023-04-30T08:23:31;0.70;;;0.70;;
12383;SDS011;6256;63.808;20.336;2023-04-30T08:25:57;0.60;;;0.60;;
12383;SDS011;6256;63.808;20.336;2023-04-30T08:28:22;0.30;;;0.30;;
12383;SDS011;6256;63.808;20.336;2023-04-30T08:30:48;0.40;;;0.40;;
12383;SDS011;6256;63.808;20.336;2023-04-30T08:33:14;1.43;;;0.60;;
12383;SDS011;6256;63.808;20.336;2023-04-30T08:35:39;1.13;;;0.57;;
12383;SDS011;6256;63.808;20.336;2023-04-30T08:38:05;0.90;;;0.50;;
12383;SDS011;6256;63.808;20.336;2023-04-30T08:40:32;0.97;;;0.77;;
12383;SDS011;6256;63.808;20.336;2023-04-30T08:43:04;2.33;;;0.70;;
12383;SDS011;6256;63.808;20.336;2023-04-30T08:45:33;0.60;;;0.60;;
12383;SDS011;6256;63.808;20.336;2023-04-30T08:48:01;0.60;;;0.60;;
12383;SDS011;6256;63.808;20.336;2023-04-30T08:50:39;1.70;;;0.70;;
12383;SDS011;6256;63.808;20.336;2023-04-30T08:53:08;0.93;;;0.60;;
12383;SDS011;6256;63.808;20.336;2023-04-30T08:55:34;0.50;;;0.50;;
12383;SDS011;6256;63.808;20.336;2023-04-30T08:58:02;2.23;;;0.47;;
12383;SDS011;6256;63.808;20.336;2023-04-30T09:00:30;0.40;;;0.40;;
12383;SDS011;6256;63.808;20.336;2023-04-30T09:02:57;0.53;;;0.53;;
12383;SDS011;6256;63.808;20.336;2023-04-30T09:05:24;0.63;;;0.50;;
12383;SDS011;6256;63.808;20.336;2023-04-30T09:07:50;0.50;;;0.50;;
12383;SDS011;6256;63.808;20.336;2023-04-30T09:10:16;0.37;;;0.37;;
12383;SDS011;6256;63.808;20.336;2023-04-30T09:13:08;0.53;;;0.50;;
12383;SDS011;6256;63.808;20.336;2023-04-30T09:15:34;0.50;;;0.50;;
12383;SDS011;6256;63.808;20.336;2023-04-30T09:18:19;1.60;;;0.43;;
12383;SDS011;6256;63.808;20.336;2023-04-30T09:20:56;0.60;;;0.60;;
12383;SDS011;6256;63.808;20.336;2023-04-30T09:23:25;0.73;;;0.73;;
12383;SDS011;6256;63.808;20.336;2023-04-30T09:25:51;0.43;;;0.43;;
12383;SDS011;6256;63.808;20.336;2023-04-30T09:28:16;0.40;;;0.40;;
12383;SDS011;6256;63.808;20.336;2023-04-30T09:30:47;1.57;;;0.70;;
12383;SDS011;6256;63.808;20.336;2023-04-30T09:33:13;0.87;;;0.57;;
12383;SDS011;6256;63.808;20.336;2023-04-30T09:35:39;0.50;;;0.33;;
12383;SDS011;6256;63.808;20.336;2023-04-30T09:38:08;0.97;;;0.50;;
12383;SDS011;6256;63.808;20.336;2023-04-30T09:40:56;0.50;;;0.50;;
12383;SDS011;6256;63.808;20.336;2023-04-30T09:43:24;0.50;;;0.50;;
12383;SDS011;6256;63.808;20.336;2023-04-30T09:45:50;1.20;;;0.67;;
12383;SDS011;6256;63.808;20.336;2023-04-30T09:48:25;0.50;;;0.50;;
12383;SDS011;6256;63.808;20.336;2023-04-30T09:50:55;0.60;;;0.53;;
12383;SDS011;6256;63.808;20.336;2023-04-30T09:53:21;0.37;;;0.37;;
12383;SDS011;6256;63.808;20.336;2023-04-30T09:55:48;0.50;;;0.50;;
12383;SDS011;6256;63.808;20.336;2023-04-30T09:58:15;0.40;;;0.40;;
12383;SDS011;6256;63.808;20.336;2023-04-30T10:00:42;0.57;;;0.57;;
12383;SDS011;6256;63.808;20.336;2023-04-30T10:03:10;1.90;;;0.80;;
12383;SDS011;6256;63.808;20.336;2023-04-30T10:05:40;0.50;;;0.50;;
12383;SDS011;6256;63.808;20.336;2023-04-30T10:11:03;0.80;;;0.50;;
12383;SDS011;6256;63.808;20.336;2023-04-30T10:13:31;1.17;;;0.77;;
12383;SDS011;6256;63.808;20.336;2023-04-30T10:16:10;0.50;;;0.50;;
12383;SDS011;6256;63.808;20.336;2023-04-30T10:18:44;1.53;;;0.60;;
12383;SDS011;6256;63.808;20.336;2023-04-30T10:21:13;1.30;;;0.60;;
12383;SDS011;6256;63.808;20.336;2023-04-30T10:23:40;0.60;;;0.60;;
12383;SDS011;6256;63.808;20.336;2023-04-30T10:26:08;0.40;;;0.40;;
12383;SDS011;6256;63.808;20.336;2023-04-30T10:28:36;0.77;;;0.70;;
12383;SDS011;6256;63.808;20.336;2023-04-30T10:31:02;0.90;;;0.60;;
12383;SDS011;6256;63.808;20.336;2023-04-30T10:36:21;2.30;;;1.00;;
12383;SDS011;6256;63.808;20.336;2023-04-30T10:38:54;0.53;;;0.53;;
12383;SDS011;6256;63.808;20.336;2023-04-30T10:41:22;0.50;;;0.50;;
12383;SDS011;6256;63.808;20.336;2023-04-30T10:43:56;1.13;;;0.60;;
12383;SDS011;6256;63.808;20.336;2023-04-30T10:46:25;2.00;;;0.67;;
12383;SDS011;6256;63.808;20.336;2023-04-30T10:48:52;1.03;;;0.70;;
12383;SDS011;6256;63.808;20.336;2023-04-30T10:51:19;0.60;;;0.60;;
12383;SDS011;6256;63.808;20.336;2023-04-30T10:53:47;0.40;;;0.40;;
12383;SDS011;6256;63.808;20.336;2023-04-30T10:56:31;0.47;;;0.47;;
12383;SDS011;6256;63.808;20.336;2023-04-30T10:58:58;0.40;;;0.40;;
12383;SDS011;6256;63.808;20.336;2023-04-30T11:01:28;0.47;;;0.47;;
12383;SDS011;6256;63.808;20.336;2023-04-30T11:04:08;0.60;;;0.60;;
12383;SDS011;6256;63.808;20.336;2023-04-30T11:09:40;1.07;;;0.40;;
12383;SDS011;6256;63.808;20.336;2023-04-30T11:12:11;1.83;;;0.43;;
12383;SDS011;6256;63.808;20.336;2023-04-30T11:14:44;1.23;;;0.80;;
12383;SDS011;6256;63.808;20.336;2023-04-30T11:17:12;0.70;;;0.40;;
12383;SDS011;6256;63.808;20.336;2023-04-30T11:19:48;0.93;;;0.40;;
12383;SDS011;6256;63.808;20.336;2023-04-30T11:22:16;0.63;;;0.63;;
12383;SDS011;6256;63.808;20.336;2023-04-30T11:24:51;1.33;;;0.60;;
12383;SDS011;6256;63.808;20.336;2023-04-30T11:27:23;2.73;;;0.70;;
12383;SDS011;6256;63.808;20.336;2023-04-30T11:29:51;2.80;;;0.63;;
12383;SDS011;6256;63.808;20.336;2023-04-30T11:32:18;2.83;;;0.70;;
12383;SDS011;6256;63.808;20.336;2023-04-30T11:34:44;0.70;;;0.70;;
12383;SDS011;6256;63.808;20.336;2023-04-30T11:37:11;1.30;;;0.60;;
12383;SDS011;6256;63.808;20.336;2023-04-30T11:39:38;0.75;;;0.50;;
12383;SDS011;6256;63.808;20.336;2023-04-30T11:42:06;1.95;;;0.57;;
12383;SDS011;6256;63.808;20.336;2023-04-30T11:44:32;0.60;;;0.60;;
12383;SDS011;6256;63.808;20.336;2023-04-30T11:46:58;0.60;;;0.60;;
12383;SDS011;6256;63.808;20.336;2023-04-30T11:49:25;0.55;;;0.55;;
12383;SDS011;6256;63.808;20.336;2023-04-30T11:51:51;0.32;;;0.32;;
12383;SDS011;6256;63.808;20.336;2023-04-30T11:54:17;0.63;;;0.63;;
12383;SDS011;6256;63.808;20.336;2023-04-30T11:56:46;1.80;;;0.70;;
12383;SDS011;6256;63.808;20.336;2023-04-30T11:59:13;0.40;;;0.40;;
12383;SDS011;6256;63.808;20.336;2023-04-30T12:01:39;1.05;;;0.57;;
12383;SDS011;6256;63.808;20.336;2023-04-30T12:04:06;1.17;;;0.93;;
12383;SDS011;6256;63.808;20.336;2023-04-30T12:06:35;2.85;;;0.90;;
12383;SDS011;6256;63.808;20.336;2023-04-30T12:09:01;2.15;;;0.70;;
12383;SDS011;6256;63.808;20.336;2023-04-30T12:11:36;0.88;;;0.70;;
12383;SDS011;6256;63.808;20.336;2023-04-30T12:14:03;1.13;;;0.63;;
12383;SDS011;6256;63.808;20.336;2023-04-30T12:16:42;0.52;;;0.52;;
12383;SDS011;6256;63.808;20.336;2023-04-30T12:19:09;2.28;;;1.00;;
12383;SDS011;6256;63.808;20.336;2023-04-30T12:21:36;0.70;;;0.60;;
12383;SDS011;6256;63.808;20.336;2023-04-30T12:24:03;0.60;;;0.60;;
12383;SDS011;6256;63.808;20.336;2023-04-30T12:26:35;1.48;;;0.70;;
12383;SDS011;6256;63.808;20.336;2023-04-30T12:29:04;0.50;;;0.50;;
12383;SDS011;6256;63.808;20.336;2023-04-30T12:31:32;3.72;;;0.60;;
12383;SDS011;6256;63.808;20.336;2023-04-30T12:34:02;0.63;;;0.60;;
12383;SDS011;6256;63.808;20.336;2023-04-30T12:36:29;2.65;;;0.63;;
12383;SDS011;6256;63.808;20.336;2023-04-30T12:39:06;1.00;;;0.73;;
12383;SDS011;6256;63.808;20.336;2023-04-30T12:41:42;0.85;;;0.70;;
12383;SDS011;6256;63.808;20.336;2023-04-30T12:44:16;0.50;;;0.50;;
12383;SDS011;6256;63.808;20.336;2023-04-30T12:46:43;2.53;;;0.90;;
12383;SDS011;6256;63.808;20.336;2023-04-30T12:49:10;1.85;;;0.70;;
12383;SDS011;6256;63.808;20.336;2023-04-30T12:51:36;0.65;;;0.65;;
12383;SDS011;6256;63.808;20.336;2023-04-30T12:54:05;0.47;;;0.40;;
12383;SDS011;6256;63.808;20.336;2023-04-30T12:56:31;0.45;;;0.45;;
12383;SDS011;6256;63.808;20.336;2023-04-30T12:58:56;0.73;;;0.63;;
12383;SDS011;6256;63.808;20.336;2023-04-30T13:01:22;1.10;;;0.60;;
12383;SDS011;6256;63.808;20.336;2023-04-30T13:03:49;1.70;;;0.77;;
12383;SDS011;6256;63.808;20.336;2023-04-30T13:06:19;3.42;;;0.52;;
12383;SDS011;6256;63.808;20.336;2023-04-30T13:08:46;0.50;;;0.50;;
12383;SDS011;6256;63.808;20.336;2023-04-30T13:11:12;1.45;;;0.77;;
12383;SDS011;6256;63.808;20.336;2023-04-30T13:13:37;0.85;;;0.50;;
12383;SDS011;6256;63.808;20.336;2023-04-30T13:16:03;3.40;;;0.68;;
12383;SDS011;6256;63.808;20.336;2023-04-30T13:18:30;1.48;;;0.73;;
12383;SDS011;6256;63.808;20.336;2023-04-30T13:20:56;0.43;;;0.43;;
12383;SDS011;6256;63.808;20.336;2023-04-30T13:23:22;4.05;;;0.60;;
12383;SDS011;6256;63.808;20.336;2023-04-30T13:25:48;0.60;;;0.60;;
12383;SDS011;6256;63.808;20.336;2023-04-30T13:28:13;1.57;;;1.00;;
12383;SDS011;6256;63.808;20.336;2023-04-30T13:30:40;0.60;;;0.60;;
12383;SDS011;6256;63.808;20.336;2023-04-30T13:33:05;2.67;;;0.88;;
12383;SDS011;6256;63.808;20.336;2023-04-30T13:35:31;0.50;;;0.50;;
12383;SDS011;6256;63.808;20.336;2023-04-30T13:38:00;0.53;;;0.53;;
12383;SDS011;6256;63.808;20.336;2023-04-30T13:40:26;0.50;;;0.50;;
12383;SDS011;6256;63.808;20.336;2023-04-30T13:42:52;0.40;;;0.40;;
12383;SDS011;6256;63.808;20.336;2023-04-30T13:45:17;0.70;;;0.70;;
12383;SDS011;6256;63.808;20.336;2023-04-30T13:47:43;1.00;;;0.90;;
12383;SDS011;6256;63.808;20.336;2023-04-30T13:50:09;0.47;;;0.47;;
12383;SDS011;6256;63.808;20.336;2023-04-30T13:52:35;2.53;;;1.03;;
12383;SDS011;6256;63.808;20.336;2023-04-30T13:55:01;1.92;;;0.70;;
12383;SDS011;6256;63.808;20.336;2023-04-30T13:57:27;1.60;;;0.50;;
12383;SDS011;6256;63.808;20.336;2023-04-30T13:59:56;0.63;;;0.57;;
12383;SDS011;6256;63.808;20.336;2023-04-30T14:02:22;0.75;;;0.40;;
12383;SDS011;6256;63.808;20.336;2023-04-30T14:04:48;1.03;;;0.60;;
12383;SDS011;6256;63.808;20.336;2023-04-30T14:07:14;0.80;;;0.50;;
12383;SDS011;6256;63.808;20.336;2023-04-30T14:09:39;0.43;;;0.43;;
12383;SDS011;6256;63.808;20.336;2023-04-30T14:12:05;0.50;;;0.50;;
12383;SDS011;6256;63.808;20.336;2023-04-30T14:14:31;0.50;;;0.40;;
12383;SDS011;6256;63.808;20.336;2023-04-30T14:16:56;0.30;;;0.30;;
12383;SDS011;6256;63.808;20.336;2023-04-30T14:19:22;1.13;;;0.50;;
12383;SDS011;6256;63.808;20.336;2023-04-30T14:21:48;0.60;;;0.60;;
12383;SDS011;6256;63.808;20.336;2023-04-30T14:24:13;0.60;;;0.60;;
12383;SDS011;6256;63.808;20.336;2023-04-30T14:26:43;1.73;;;0.50;;
12383;SDS011;6256;63.808;20.336;2023-04-30T14:29:10;1.10;;;1.10;;
12383;SDS011;6256;63.808;20.336;2023-04-30T14:31:36;0.67;;;0.40;;
12383;SDS011;6256;63.808;20.336;2023-04-30T14:34:02;0.50;;;0.50;;
12383;SDS011;6256;63.808;20.336;2023-04-30T14:36:28;0.47;;;0.47;;
12383;SDS011;6256;63.808;20.336;2023-04-30T14:38:53;0.60;;;0.60;;
12383;SDS011;6256;63.808;20.336;2023-04-30T14:41:19;0.57;;;0.57;;
12383;SDS011;6256;63.808;20.336;2023-04-30T14:43:45;0.60;;;0.60;;
12383;SDS011;6256;63.808;20.336;2023-04-30T14:46:11;2.17;;;0.57;;
12383;SDS011;6256;63.808;20.336;2023-04-30T14:48:37;1.38;;;0.40;;
12383;SDS011;6256;63.808;20.336;2023-04-30T14:51:03;0.40;;;0.40;;
12383;SDS011;6256;63.808;20.336;2023-04-30T14:53:28;0.55;;;0.55;;
12383;SDS011;6256;63.808;20.336;2023-04-30T14:55:54;0.80;;;0.80;;
12383;SDS011;6256;63.808;20.336;2023-04-30T14:58:20;1.10;;;0.57;;
12383;SDS011;6256;63.808;20.336;2023-04-30T15:00:46;0.70;;;0.70;;
12383;SDS011;6256;63.808;20.336;2023-04-30T15:03:15;1.35;;;0.70;;
12383;SDS011;6256;63.808;20.336;2023-04-30T15:05:40;2.92;;;0.65;;
12383;SDS011;6256;63.808;20.336;2023-04-30T15:08:06;1.23;;;0.80;;
12383;SDS011;6256;63.808;20.336;2023-04-30T15:10:32;1.55;;;0.80;;
12383;SDS011;6256;63.808;20.336;2023-04-30T15:12:58;3.13;;;0.82;;